createdAt,value
2023-05-25T00:01:24.485Z,2.70
2023-05-25T00:04:11.049Z,2.60
2023-05-25T00:06:56.745Z,2.57
2023-05-25T00:09:44.448Z,2.60
2023-05-25T00:12:29.866Z,2.60
2023-05-25T00:15:15.149Z,2.50
2023-05-25T00:18:00.966Z,2.50
2023-05-25T00:20:47.526Z,2.60
2023-05-25T00:23:33.526Z,2.90
2023-05-25T00:26:18.915Z,2.70
2023-05-25T00:29:04.763Z,2.57
2023-05-25T00:31:51.259Z,2.43
2023-05-25T00:34:37.537Z,2.30
2023-05-25T00:37:23.424Z,2.20
2023-05-25T00:40:14.551Z,2.30
2023-05-25T00:43:00.248Z,2.43
2023-05-25T00:45:46.695Z,2.53
2023-05-25T00:48:33.147Z,2.03
2023-05-25T00:51:18.325Z,2.57
2023-05-25T00:54:03.976Z,2.30
2023-05-25T00:56:57.592Z,2.10
2023-05-25T01:02:34.872Z,2.63
2023-05-25T01:05:21.473Z,2.27
2023-05-25T01:08:08.769Z,2.40
2023-05-25T01:10:57.295Z,2.70
2023-05-25T01:13:43.431Z,2.30
2023-05-25T01:16:30.126Z,2.30
2023-05-25T01:19:15.957Z,2.43
2023-05-25T01:22:08.136Z,2.27
2023-05-25T01:25:02.203Z,2.30
2023-05-25T01:27:51.564Z,2.37
2023-05-25T01:30:41.179Z,2.20
2023-05-25T01:33:28.761Z,2.50
2023-05-25T01:36:14.805Z,2.30
2023-05-25T01:39:01.127Z,2.33
2023-05-25T01:41:46.652Z,2.40
2023-05-25T01:44:32.459Z,2.17
2023-05-25T01:47:59.799Z,2.40
2023-05-25T01:50:59.579Z,2.30
2023-05-25T01:54:03.353Z,2.13
2023-05-25T01:56:55.664Z,2.10
2023-05-25T01:59:44.239Z,2.23
2023-05-25T02:02:31.790Z,2.60
2023-05-25T02:05:20.656Z,2.00
2023-05-25T02:08:06.342Z,2.27
2023-05-25T02:10:51.714Z,2.17
2023-05-25T02:13:37.188Z,2.10
2023-05-25T02:16:22.569Z,2.17
2023-05-25T02:19:12.303Z,2.30
2023-05-25T02:21:57.977Z,1.80
2023-05-25T02:24:44.252Z,2.10
2023-05-25T02:27:29.745Z,2.03
2023-05-25T02:30:15.045Z,2.23
2023-05-25T02:33:02.405Z,2.13
2023-05-25T02:35:49.518Z,2.20
2023-05-25T02:38:34.986Z,2.00
2023-05-25T02:41:21.350Z,2.30
2023-05-25T02:44:06.814Z,1.90
2023-05-25T02:46:52.099Z,2.00
2023-05-25T02:49:37.464Z,2.53
2023-05-25T02:52:22.858Z,2.40
2023-05-25T02:55:13.306Z,2.83
2023-05-25T02:58:00.757Z,3.63
2023-05-25T03:01:06.029Z,4.00
2023-05-25T03:03:54.617Z,4.10
2023-05-25T03:06:42.451Z,4.30
2023-05-25T03:09:32.158Z,4.43
2023-05-25T03:12:18.945Z,4.60
2023-05-25T03:15:05.330Z,4.93
2023-05-25T03:17:53.898Z,5.30
2023-05-25T03:20:41.569Z,5.20
2023-05-25T03:23:27.549Z,5.43
2023-05-25T03:26:15.949Z,5.13
2023-05-25T03:29:06.812Z,5.63
2023-05-25T03:31:52.803Z,5.73
2023-05-25T03:34:41.754Z,5.57
2023-05-25T03:37:31.873Z,5.50
2023-05-25T03:40:17.601Z,4.80
2023-05-25T03:43:02.975Z,5.20
2023-05-25T03:45:48.825Z,5.60
2023-05-25T03:48:35.935Z,4.97
2023-05-25T03:51:23.225Z,4.90
2023-05-25T03:54:09.321Z,5.00
2023-05-25T03:56:54.615Z,5.00
2023-05-25T03:59:39.938Z,5.30
2023-05-25T04:02:25.239Z,4.27
2023-05-25T04:05:11.662Z,4.70
2023-05-25T04:07:58.062Z,4.67
2023-05-25T04:10:48.303Z,4.57
2023-05-25T04:13:36.693Z,4.63
2023-05-25T04:16:23.626Z,4.37
2023-05-25T04:19:09.424Z,4.07
2023-05-25T04:21:58.531Z,3.80
2023-05-25T04:24:46.937Z,3.90
2023-05-25T04:27:33.095Z,3.93
2023-05-25T04:30:18.306Z,3.80
2023-05-25T04:33:14.641Z,3.87
2023-05-25T04:36:19.454Z,3.90
2023-05-25T04:39:05.780Z,3.93
2023-05-25T04:41:53.873Z,3.73
2023-05-25T04:44:40.195Z,4.00
2023-05-25T04:47:26.450Z,4.37
2023-05-25T04:50:13.957Z,4.27
2023-05-25T04:52:59.585Z,4.00
2023-05-25T04:55:45.094Z,6.30
2023-05-25T04:58:31.524Z,7.20
2023-05-25T05:01:16.973Z,7.93
2023-05-25T05:04:02.744Z,8.40
2023-05-25T05:06:48.753Z,7.70
2023-05-25T05:09:39.800Z,9.43
2023-05-25T05:12:26.570Z,8.93
2023-05-25T05:15:14.991Z,8.67
2023-05-25T05:18:03.959Z,7.90
2023-05-25T05:20:49.636Z,7.90
2023-05-25T05:23:36.539Z,8.17
2023-05-25T05:26:23.099Z,7.57
2023-05-25T05:29:08.809Z,8.37
2023-05-25T05:31:56.127Z,7.67
2023-05-25T05:34:41.685Z,7.07
2023-05-25T05:37:37.142Z,7.17
2023-05-25T05:40:22.355Z,7.37
2023-05-25T05:43:07.694Z,6.87
2023-05-25T05:45:53.041Z,6.53
2023-05-25T05:48:38.966Z,6.63
2023-05-25T05:51:24.542Z,6.60
2023-05-25T05:54:09.688Z,6.60
2023-05-25T05:56:55.072Z,6.63
2023-05-25T05:59:40.643Z,7.17
2023-05-25T06:02:26.233Z,5.93
2023-05-25T06:05:12.391Z,6.33
2023-05-25T06:08:01.074Z,6.60
2023-05-25T06:10:46.643Z,6.03
2023-05-25T06:13:32.960Z,6.47
2023-05-25T06:16:19.636Z,5.80
2023-05-25T06:19:05.471Z,6.10
2023-05-25T06:21:51.185Z,5.70
2023-05-25T06:24:39.656Z,5.87
2023-05-25T06:27:24.964Z,5.90
2023-05-25T06:30:11.366Z,6.20
2023-05-25T06:32:57.064Z,5.80
2023-05-25T06:35:43.940Z,5.83
2023-05-25T06:38:29.671Z,5.23
2023-05-25T06:41:15.445Z,5.70
2023-05-25T06:44:01.889Z,5.40
2023-05-25T06:46:51.405Z,5.47
2023-05-25T06:49:36.671Z,5.60
2023-05-25T06:52:21.977Z,5.00
2023-05-25T06:55:08.811Z,5.50
2023-05-25T06:57:54.184Z,4.80
2023-05-25T07:00:39.430Z,5.20
2023-05-25T07:03:24.588Z,5.60
2023-05-25T07:06:12.133Z,5.20
2023-05-25T07:08:57.529Z,5.00
2023-05-25T07:11:42.873Z,4.73
2023-05-25T07:14:28.078Z,5.37
2023-05-25T07:17:13.442Z,5.47
2023-05-25T07:19:58.857Z,4.90
2023-05-25T07:22:47.314Z,4.77
2023-05-25T07:25:41.300Z,4.78
2023-05-25T07:28:27.258Z,4.50
2023-05-25T07:31:12.472Z,4.77
2023-05-25T07:33:57.733Z,4.57
2023-05-25T07:36:42.927Z,5.20
2023-05-25T07:39:28.673Z,4.60
2023-05-25T07:42:14.230Z,4.87
2023-05-25T07:44:59.850Z,4.20
2023-05-25T07:47:45.362Z,4.17
2023-05-25T07:50:31.863Z,5.10
2023-05-25T07:53:17.322Z,4.60
2023-05-25T07:56:02.463Z,4.20
2023-05-25T07:58:49.052Z,4.63
2023-05-25T08:01:36.029Z,4.80
2023-05-25T08:04:21.530Z,4.63
2023-05-25T08:07:07.475Z,4.73
2023-05-25T08:09:53.013Z,4.20
2023-05-25T08:12:49.055Z,4.77
2023-05-25T08:15:35.664Z,4.53
2023-05-25T08:18:20.939Z,4.07
2023-05-25T08:21:06.151Z,4.57
2023-05-25T08:23:52.265Z,4.20
2023-05-25T08:26:49.587Z,4.00
2023-05-25T08:29:39.853Z,4.03
2023-05-25T08:32:25.033Z,4.60
2023-05-25T08:35:10.356Z,4.07
2023-05-25T08:37:55.500Z,4.40
2023-05-25T08:40:43.397Z,4.10
2023-05-25T08:43:28.711Z,4.00
2023-05-25T08:46:15.000Z,3.80
2023-05-25T08:49:14.955Z,4.10
2023-05-25T08:52:00.595Z,4.63
2023-05-25T08:54:48.089Z,3.77
2023-05-25T08:58:00.074Z,3.83
2023-05-25T09:00:55.055Z,4.00
2023-05-25T09:03:41.616Z,3.70
2023-05-25T09:06:28.263Z,3.80
2023-05-25T09:09:13.938Z,3.90
2023-05-25T09:11:59.242Z,3.63
2023-05-25T09:14:48.054Z,3.50
2023-05-25T09:17:35.359Z,4.03
2023-05-25T09:20:23.936Z,4.10
2023-05-25T09:23:10.307Z,3.73
2023-05-25T09:25:56.349Z,4.00
2023-05-25T09:28:46.966Z,3.60
2023-05-25T09:31:32.079Z,3.60
2023-05-25T09:34:17.285Z,3.93
2023-05-25T09:37:16.626Z,3.50
2023-05-25T09:40:02.215Z,3.47
2023-05-25T09:42:47.360Z,3.57
2023-05-25T09:45:32.985Z,3.10
2023-05-25T09:48:18.481Z,3.80
2023-05-25T09:51:03.849Z,3.60
2023-05-25T09:53:49.602Z,3.53
2023-05-25T09:56:34.845Z,3.73
2023-05-25T09:59:22.875Z,3.40
2023-05-25T10:02:08.676Z,3.10
2023-05-25T10:04:53.950Z,3.53
2023-05-25T10:07:40.454Z,3.50
2023-05-25T10:10:26.383Z,4.33
2023-05-25T10:13:14.094Z,3.63
2023-05-25T10:16:01.481Z,3.80
2023-05-25T10:18:49.686Z,3.20
2023-05-25T10:21:37.229Z,4.07
2023-05-25T10:24:35.519Z,3.67
2023-05-25T10:27:27.464Z,3.40
2023-05-25T10:30:15.392Z,3.40
2023-05-25T10:33:03.120Z,3.37
2023-05-25T10:36:02.338Z,3.60
2023-05-25T10:38:55.718Z,3.80
2023-05-25T10:41:42.169Z,3.13
2023-05-25T10:44:29.805Z,3.47
2023-05-25T10:47:16.693Z,3.27
2023-05-25T10:50:03.505Z,3.27
2023-05-25T10:53:01.870Z,3.30
2023-05-25T10:55:52.989Z,3.20
2023-05-25T10:58:43.177Z,3.20
2023-05-25T11:01:31.062Z,3.47
2023-05-25T11:04:17.344Z,3.10
2023-05-25T11:07:02.940Z,3.13
2023-05-25T11:09:58.872Z,3.47
2023-05-25T11:12:46.511Z,3.60
2023-05-25T11:15:32.238Z,3.03
2023-05-25T11:18:17.449Z,3.23
2023-05-25T11:21:12.891Z,3.50
2023-05-25T11:24:06.654Z,3.27
2023-05-25T11:27:01.524Z,3.00
2023-05-25T11:29:51.063Z,3.23
2023-05-25T11:32:41.147Z,3.50
2023-05-25T11:39:04.710Z,3.10
2023-05-25T11:41:56.827Z,3.20
2023-05-25T11:44:42.272Z,3.17
2023-05-25T11:47:30.186Z,3.27
2023-05-25T11:50:17.476Z,3.13
2023-05-25T11:53:07.039Z,2.97
2023-05-25T11:56:00.519Z,3.20
2023-05-25T11:58:53.024Z,3.10
2023-05-25T12:01:38.352Z,2.90
2023-05-25T12:04:24.538Z,3.30
2023-05-25T12:07:10.095Z,2.90
2023-05-25T12:10:09.604Z,3.23
2023-05-25T12:12:58.415Z,2.93
2023-05-25T12:15:44.565Z,2.80
2023-05-25T12:18:30.353Z,3.13
2023-05-25T12:21:16.559Z,3.23
2023-05-25T12:24:02.808Z,3.13
2023-05-25T12:26:57.791Z,2.83
2023-05-25T12:29:47.840Z,3.13
2023-05-25T12:32:33.195Z,3.37
2023-05-25T12:35:18.578Z,3.10
2023-05-25T12:38:21.909Z,2.70
2023-05-25T12:41:08.482Z,3.00
2023-05-25T12:43:54.097Z,2.97
2023-05-25T12:46:39.449Z,3.27
2023-05-25T12:49:34.338Z,2.73
2023-05-25T12:52:48.939Z,3.00
2023-05-25T12:55:36.310Z,2.80
2023-05-25T12:58:28.489Z,3.20
2023-05-25T13:01:14.214Z,2.80
2023-05-25T13:03:59.311Z,2.87
2023-05-25T13:06:44.779Z,2.93
2023-05-25T13:09:30.424Z,3.00
2023-05-25T13:12:15.920Z,3.53
2023-05-25T13:15:01.188Z,2.53
2023-05-25T13:17:48.305Z,2.40
2023-05-25T13:20:33.920Z,2.60
2023-05-25T13:23:19.071Z,3.00
2023-05-25T13:26:04.395Z,3.10
2023-05-25T13:28:49.636Z,2.87
2023-05-25T13:31:34.886Z,3.53
2023-05-25T13:34:20.206Z,3.33
2023-05-25T13:37:06.087Z,3.17
2023-05-25T13:39:51.313Z,3.63
2023-05-25T13:42:36.598Z,3.90
2023-05-25T13:45:22.020Z,4.37
2023-05-25T13:48:07.526Z,4.23
2023-05-25T13:50:53.266Z,5.20
2023-05-25T13:53:38.743Z,4.70
2023-05-25T13:56:24.788Z,3.90
2023-05-25T13:59:10.698Z,4.67
2023-05-25T14:01:56.666Z,4.20
2023-05-25T14:04:41.863Z,4.00
2023-05-25T14:07:27.386Z,4.40
2023-05-25T14:10:13.433Z,3.73
2023-05-25T14:12:59.128Z,3.77
2023-05-25T14:15:44.852Z,3.97
2023-05-25T14:18:30.645Z,3.73
2023-05-25T14:21:16.553Z,3.70
2023-05-25T14:24:01.974Z,3.73
2023-05-25T14:26:47.183Z,3.50
2023-05-25T14:29:32.897Z,3.90
2023-05-25T14:32:19.306Z,4.20
2023-05-25T14:35:04.992Z,3.77
2023-05-25T14:37:50.748Z,3.90
2023-05-25T14:40:36.421Z,3.50
2023-05-25T14:43:21.740Z,3.97
2023-05-25T14:46:07.475Z,3.57
2023-05-25T14:48:52.796Z,3.80
2023-05-25T14:51:38.368Z,3.83
2023-05-25T14:54:24.086Z,3.97
2023-05-25T14:57:09.792Z,3.87
2023-05-25T14:59:56.075Z,4.33
2023-05-25T15:02:42.108Z,3.80
2023-05-25T15:05:28.099Z,3.97
2023-05-25T15:08:13.787Z,4.13
2023-05-25T15:11:05.755Z,4.20
2023-05-25T15:13:51.938Z,4.30
2023-05-25T15:16:37.631Z,4.37
2023-05-25T15:19:22.864Z,3.93
2023-05-25T15:22:07.977Z,4.70
2023-05-25T15:24:53.518Z,4.90
2023-05-25T15:27:39.102Z,5.70
2023-05-25T15:30:24.284Z,5.30
2023-05-25T15:33:09.719Z,5.40
2023-05-25T15:35:55.534Z,5.43
2023-05-25T15:38:42.956Z,5.63
2023-05-25T15:41:28.333Z,5.73
2023-05-25T15:44:13.866Z,5.37
2023-05-25T15:46:59.315Z,4.83
2023-05-25T15:49:44.633Z,4.77
2023-05-25T15:52:30.073Z,4.80
2023-05-25T15:55:15.806Z,5.17
2023-05-25T15:58:01.406Z,5.37
2023-05-25T16:00:46.793Z,5.90
2023-05-25T16:03:32.226Z,5.73
2023-05-25T16:06:17.394Z,5.17
2023-05-25T16:09:02.862Z,5.77
2023-05-25T16:11:48.013Z,5.00
2023-05-25T16:14:33.355Z,4.67
2023-05-25T16:17:18.662Z,4.40
2023-05-25T16:20:04.530Z,5.30
2023-05-25T16:22:50.311Z,4.87
2023-05-25T16:25:35.892Z,4.17
2023-05-25T16:28:21.199Z,5.60
2023-05-25T16:31:08.047Z,4.97
2023-05-25T16:33:53.719Z,5.20
2023-05-25T16:36:39.126Z,5.37
2023-05-25T16:39:24.355Z,5.50
2023-05-25T16:42:09.836Z,5.87
2023-05-25T16:44:55.145Z,5.27
2023-05-25T16:47:40.716Z,5.77
2023-05-25T16:50:26.536Z,5.67
2023-05-25T16:53:11.960Z,5.40
2023-05-25T16:55:57.315Z,5.43
2023-05-25T16:58:42.769Z,5.03
2023-05-25T17:01:28.178Z,5.00
2023-05-25T17:04:13.639Z,5.40
2023-05-25T17:06:58.852Z,4.97
2023-05-25T17:09:44.328Z,5.00
2023-05-25T17:12:29.556Z,4.67
2023-05-25T17:15:16.181Z,4.23
2023-05-25T17:18:01.828Z,4.10
2023-05-25T17:20:47.432Z,4.23
2023-05-25T17:23:32.884Z,4.10
2023-05-25T17:26:18.047Z,4.07
2023-05-25T17:29:04.892Z,4.27
2023-05-25T17:31:50.513Z,4.77
2023-05-25T17:34:35.877Z,4.43
2023-05-25T17:37:21.329Z,4.20
2023-05-25T17:40:07.422Z,4.60
2023-05-25T17:42:52.510Z,4.17
2023-05-25T17:45:37.943Z,4.27
2023-05-25T17:48:23.043Z,4.80
2023-05-25T17:51:08.232Z,4.80
2023-05-25T17:53:53.397Z,4.80
2023-05-25T17:56:38.562Z,4.10
2023-05-25T17:59:23.855Z,4.77
2023-05-25T18:02:09.257Z,5.00
2023-05-25T18:04:54.535Z,4.53
2023-05-25T18:07:39.784Z,4.47
2023-05-25T18:10:25.063Z,4.87
2023-05-25T18:13:10.168Z,4.73
2023-05-25T18:15:55.913Z,4.57
2023-05-25T18:18:41.476Z,4.33
2023-05-25T18:21:26.712Z,4.47
2023-05-25T18:24:12.065Z,4.57
2023-05-25T18:26:59.057Z,4.50
2023-05-25T18:29:44.380Z,5.20
2023-05-25T18:32:29.774Z,4.47
2023-05-25T18:35:14.896Z,4.00
2023-05-25T18:38:00.172Z,4.53
2023-05-25T18:40:45.451Z,4.47
2023-05-25T18:43:30.794Z,4.60
2023-05-25T18:46:16.740Z,4.83
2023-05-25T18:49:01.747Z,4.00
2023-05-25T18:51:47.126Z,4.53
2023-05-25T18:54:32.236Z,4.53
2023-05-25T18:57:17.388Z,4.20
2023-05-25T19:00:02.644Z,4.20
2023-05-25T19:02:48.126Z,4.07
2023-05-25T19:05:33.410Z,4.27
2023-05-25T19:08:18.613Z,3.70
2023-05-25T19:11:04.224Z,4.10
2023-05-25T19:13:49.665Z,4.30
2023-05-25T19:16:35.230Z,4.23
2023-05-25T19:19:20.475Z,4.00
2023-05-25T19:22:06.488Z,4.27
2023-05-25T19:25:00.343Z,4.50
2023-05-25T19:27:46.873Z,4.30
2023-05-25T19:30:32.136Z,4.40
2023-05-25T19:33:17.288Z,4.47
2023-05-25T19:36:02.661Z,4.17
2023-05-25T19:38:47.909Z,4.20
2023-05-25T19:41:33.136Z,4.13
2023-05-25T19:44:18.275Z,4.07
2023-05-25T19:47:03.489Z,4.93
2023-05-25T19:49:48.864Z,4.17
2023-05-25T19:52:34.074Z,4.37
2023-05-25T19:55:19.408Z,3.97
2023-05-25T19:58:04.623Z,3.73
2023-05-25T20:00:50.124Z,4.40
2023-05-25T20:03:35.426Z,4.00
2023-05-25T20:06:20.560Z,3.80
2023-05-25T20:09:06.167Z,3.60
2023-05-25T20:11:51.401Z,4.13
2023-05-25T20:14:36.825Z,4.57
2023-05-25T20:17:22.177Z,4.23
2023-05-25T20:20:07.747Z,4.10
2023-05-25T20:22:53.402Z,4.20
2023-05-25T20:25:38.571Z,4.30
2023-05-25T20:28:23.812Z,3.63
2023-05-25T20:31:09.411Z,4.47
2023-05-25T20:33:55.001Z,4.17
2023-05-25T20:36:40.439Z,4.53
2023-05-25T20:39:26.201Z,3.70
2023-05-25T20:42:13.932Z,3.80
2023-05-25T20:44:59.397Z,3.80
2023-05-25T20:47:44.669Z,3.83
2023-05-25T20:50:30.680Z,4.00
2023-05-25T20:53:15.946Z,3.70
2023-05-25T20:56:02.009Z,4.03
2023-05-25T20:58:47.455Z,4.50
2023-05-25T21:01:32.712Z,4.40
2023-05-25T21:04:18.009Z,3.90
2023-05-25T21:07:03.345Z,4.00
2023-05-25T21:09:48.441Z,4.33
2023-05-25T21:12:33.647Z,4.07
2023-05-25T21:15:19.084Z,3.87
2023-05-25T21:18:05.666Z,4.03
2023-05-25T21:20:51.410Z,3.70
2023-05-25T21:23:36.804Z,4.00
2023-05-25T21:26:23.255Z,3.93
2023-05-25T21:29:08.619Z,3.63
2023-05-25T21:31:54.009Z,3.73
2023-05-25T21:34:39.111Z,3.90
2023-05-25T21:37:25.070Z,4.00
2023-05-25T21:40:10.591Z,3.50
2023-05-25T21:42:56.276Z,3.83
2023-05-25T21:45:41.689Z,3.47
2023-05-25T21:48:26.851Z,3.50
2023-05-25T21:51:12.062Z,3.50
2023-05-25T21:53:57.383Z,3.33
2023-05-25T21:56:42.918Z,3.43
2023-05-25T21:59:27.985Z,3.20
2023-05-25T22:02:13.243Z,3.80
2023-05-25T22:04:58.441Z,3.43
2023-05-25T22:07:43.644Z,3.80
2023-05-25T22:10:29.196Z,3.90
2023-05-25T22:13:14.360Z,3.47
2023-05-25T22:15:59.653Z,3.40
2023-05-25T22:18:44.823Z,3.40
2023-05-25T22:21:30.090Z,3.70
2023-05-25T22:24:15.589Z,3.47
2023-05-25T22:27:01.178Z,3.53
2023-05-25T22:29:46.593Z,3.50
2023-05-25T22:32:32.060Z,3.40
2023-05-25T22:35:17.298Z,3.37
2023-05-25T22:38:02.421Z,3.60
2023-05-25T22:40:47.814Z,3.63
2023-05-25T22:43:33.552Z,3.33
2023-05-25T22:46:18.837Z,3.50
2023-05-25T22:49:04.062Z,3.60
2023-05-25T22:51:49.245Z,3.10
2023-05-25T22:54:35.326Z,3.37
2023-05-25T22:57:21.043Z,3.37
2023-05-25T23:00:07.242Z,3.43
2023-05-25T23:02:52.751Z,3.23
2023-05-25T23:05:38.491Z,3.23
2023-05-25T23:08:23.771Z,3.40
2023-05-25T23:11:09.119Z,3.20
2023-05-25T23:13:54.776Z,3.70
2023-05-25T23:16:41.488Z,3.00
2023-05-25T23:19:27.310Z,3.10
2023-05-25T23:22:12.501Z,3.30
2023-05-25T23:24:57.771Z,3.30
2023-05-25T23:27:43.003Z,3.03
2023-05-25T23:30:28.268Z,2.97
2023-05-25T23:33:13.467Z,3.07
2023-05-25T23:35:59.685Z,3.27
2023-05-25T23:38:45.768Z,3.17
2023-05-25T23:41:31.099Z,3.17
2023-05-25T23:44:16.440Z,3.30
2023-05-25T23:47:01.682Z,3.50
2023-05-25T23:49:46.814Z,3.20
2023-05-25T23:52:32.164Z,3.00
2023-05-25T23:55:17.484Z,3.67
2023-05-25T23:58:02.741Z,3.13
